Time;durP1;ratioP1;P1;durP2;ratioP2;P2;SDS_P1;SDS_P2;PMS_P1;PMS_P2;Temp;Humidity;BMP_temperature;BMP_pressure;BME280_temperature;BME280_humidity;BME280_pressure;Samples;Min_cycle;Max_cycle;Signal;HPM_P1;HPM_P2
2023/01/02 00:00:32;;;;;;;9.80;3.13;;;12.10;99.90;;;;;;5059726;28;20041;-73
2023/01/02 00:02:58;;;;;;;9.05;2.50;;;12.10;99.90;;;;;;5061957;28;20473;-73
2023/01/02 00:05:24;;;;;;;11.00;3.05;;;12.10;99.90;;;;;;5060001;28;20048;-74
2023/01/02 00:07:50;;;;;;;9.52;2.30;;;12.20;99.90;;;;;;5064420;28;20041;-73
2023/01/02 00:10:16;;;;;;;11.95;3.00;;;12.30;99.90;;;;;;5059236;28;20454;-72
2023/01/02 00:12:41;;;;;;;12.68;2.70;;;12.30;99.90;;;;;;5059044;28;20045;-74
2023/01/02 00:15:09;;;;;;;8.93;2.85;;;12.20;99.90;;;;;;5058467;28;20117;-73
2023/01/02 00:17:35;;;;;;;12.45;2.97;;;12.20;99.90;;;;;;5059241;28;20043;-73
2023/01/02 00:20:01;;;;;;;9.30;2.42;;;12.20;99.90;;;;;;5059599;28;20036;-72
2023/01/02 00:22:27;;;;;;;11.20;2.63;;;12.10;99.90;;;;;;5055172;28;20048;-76
2023/01/02 00:24:52;;;;;;;8.38;2.58;;;12.00;99.90;;;;;;5064235;28;20046;-75
2023/01/02 00:27:18;;;;;;;11.95;3.05;;;12.00;99.90;;;;;;5080922;28;20131;-76
2023/01/02 00:29:44;;;;;;;9.43;2.35;;;11.90;99.90;;;;;;5085701;28;20044;-76
2023/01/02 00:32:10;;;;;;;12.40;2.92;;;11.90;99.90;;;;;;5084489;28;20475;-76
2023/01/02 00:34:36;;;;;;;12.45;3.00;;;11.90;99.90;;;;;;5068684;28;20078;-76
2023/01/02 00:37:02;;;;;;;8.95;2.30;;;11.90;99.90;;;;;;5064710;27;20044;-76
2023/01/02 00:39:28;;;;;;;10.13;3.03;;;11.90;99.90;;;;;;5079297;28;20067;-76
2023/01/02 00:41:54;;;;;;;12.43;2.80;;;11.90;99.90;;;;;;5078745;28;20036;-77
2023/01/02 00:44:20;;;;;;;10.43;2.53;;;11.90;99.90;;;;;;5078867;28;20024;-76
2023/01/02 00:46:47;;;;;;;9.73;2.25;;;11.80;99.90;;;;;;5068798;28;20064;-76
2023/01/02 00:49:13;;;;;;;8.10;2.10;;;11.90;99.90;;;;;;5080694;28;20041;-76
2023/01/02 00:51:38;;;;;;;13.00;2.67;;;11.80;99.90;;;;;;5083871;28;20942;-76
2023/01/02 00:54:04;;;;;;;11.65;3.17;;;11.80;99.90;;;;;;5080647;28;20051;-76
2023/01/02 00:56:30;;;;;;;10.30;2.47;;;11.80;99.90;;;;;;5061751;28;20047;-76
2023/01/02 00:58:56;;;;;;;11.43;2.97;;;11.90;99.90;;;;;;5077470;28;20024;-76
2023/01/02 01:01:22;;;;;;;12.07;2.88;;;11.90;99.90;;;;;;5078018;28;20460;-76
2023/01/02 01:03:48;;;;;;;10.25;2.83;;;12.00;99.90;;;;;;5077581;28;20040;-75
2023/01/02 01:06:14;;;;;;;13.73;2.92;;;12.00;99.90;;;;;;5077294;28;20044;-76
2023/01/02 01:08:40;;;;;;;11.57;2.70;;;11.90;99.90;;;;;;5083266;28;20173;-77
2023/01/02 01:11:12;;;;;;;11.05;2.92;;;11.90;99.90;;;;;;5080393;28;20097;-77
2023/01/02 01:13:38;;;;;;;10.52;2.72;;;11.90;99.90;;;;;;5080158;28;20114;-77
2023/01/02 01:16:14;;;;;;;6.45;2.67;;;11.90;99.90;;;;;;5057878;28;20039;-76
2023/01/02 01:18:41;;;;;;;9.45;2.67;;;11.90;99.90;;;;;;5075825;28;20094;-76
2023/01/02 01:21:08;;;;;;;;;;;11.90;99.90;;;;;;5073305;28;20051;-75
2023/01/02 01:23:34;;;;;;;9.63;2.88;;;11.90;99.90;;;;;;5068059;28;19916;-76
2023/01/02 01:26:03;;;;;;;15.35;3.40;;;12.00;99.90;;;;;;5077316;28;20040;-77
2023/01/02 01:28:29;;;;;;;12.95;2.97;;;12.00;99.90;;;;;;5081597;28;20082;-76
2023/01/02 01:30:59;;;;;;;12.13;3.90;;;12.10;99.90;;;;;;5085049;28;20521;-76
2023/01/02 01:33:25;;;;;;;11.98;3.42;;;12.10;99.90;;;;;;5070540;28;20029;-75
2023/01/02 01:35:51;;;;;;;13.30;3.72;;;12.10;99.90;;;;;;5079540;28;20135;-76
2023/01/02 01:38:17;;;;;;;15.73;3.65;;;12.10;99.90;;;;;;5065682;28;20032;-76
2023/01/02 01:40:43;;;;;;;21.50;3.72;;;12.10;99.90;;;;;;5069274;28;20031;-76
2023/01/02 01:43:13;;;;;;;13.15;3.88;;;12.10;99.90;;;;;;5057947;28;20136;-76
2023/01/02 01:45:42;;;;;;;10.40;4.00;;;12.10;99.90;;;;;;5066164;28;20060;-76
2023/01/02 01:48:13;;;;;;;16.15;3.88;;;12.00;99.90;;;;;;5062182;28;20044;-76
2023/01/02 01:50:40;;;;;;;13.27;3.50;;;11.90;99.90;;;;;;5064753;28;20055;-76
2023/01/02 01:53:08;;;;;;;15.73;4.75;;;11.90;99.90;;;;;;5088840;28;20076;-77
2023/01/02 01:55:47;;;;;;;13.43;3.72;;;11.90;99.90;;;;;;5081756;28;20089;-77
2023/01/02 01:58:18;;;;;;;10.15;3.25;;;11.90;99.90;;;;;;5073596;28;20814;-76
2023/01/02 02:00:44;;;;;;;12.77;3.25;;;11.90;99.90;;;;;;5062008;28;20033;-76
2023/01/02 02:03:14;;;;;;;12.73;3.33;;;11.90;99.90;;;;;;5093786;27;20424;-76
2023/01/02 02:05:42;;;;;;;12.70;3.20;;;11.80;99.90;;;;;;5069629;28;20040;-75
2023/01/02 02:08:23;;;;;;;17.92;4.00;;;11.80;99.90;;;;;;5089994;27;20048;-75
2023/01/02 02:10:51;;;;;;;14.43;3.28;;;11.70;99.90;;;;;;5086888;28;20035;-76
2023/01/02 02:13:17;;;;;;;14.20;3.40;;;11.70;99.90;;;;;;5084971;28;20043;-76
2023/01/02 02:15:44;;;;;;;14.80;3.38;;;11.80;99.90;;;;;;5062828;28;20025;-75
2023/01/02 02:18:24;;;;;;;15.25;3.88;;;11.80;99.90;;;;;;5073272;28;20041;-75
2023/01/02 02:21:11;;;;;;;10.82;3.15;;;11.70;99.90;;;;;;5086138;28;20492;-77
2023/01/02 02:23:49;;;;;;;9.05;3.10;;;11.60;99.90;;;;;;5073714;28;20028;-76
2023/01/02 02:26:43;;;;;;;15.13;3.30;;;11.50;99.90;;;;;;5083147;28;20414;-76
2023/01/02 02:29:14;;;;;;;12.38;3.50;;;11.40;99.90;;;;;;5094341;28;20476;-76
2023/01/02 02:32:22;;;;;;;11.70;3.13;;;11.40;99.90;;;;;;5070902;28;20391;-76
2023/01/02 02:35:03;;;;;;;13.48;3.28;;;11.40;99.90;;;;;;5065147;28;20082;-75
2023/01/02 02:37:56;;;;;;;13.30;3.83;;;11.30;99.90;;;;;;5076554;28;20094;-77
2023/01/02 02:40:52;;;;;;;12.05;3.38;;;11.30;99.90;;;;;;5081159;28;20040;-76
2023/01/02 02:43:59;;;;;;;10.60;3.20;;;11.20;99.90;;;;;;5074523;28;20568;-76
2023/01/02 02:46:35;;;;;;;10.63;2.92;;;11.00;99.90;;;;;;5090670;28;20041;-76
2023/01/02 02:49:14;;;;;;;11.02;3.05;;;10.90;99.90;;;;;;5089179;28;20043;-76
2023/01/02 02:51:46;;;;;;;;;;;10.90;99.90;;;;;;5076732;28;20090;-77
2023/01/02 02:54:21;;;;;;;13.30;2.50;;;11.00;99.90;;;;;;5090119;27;19921;-75
2023/01/02 02:56:48;;;;;;;10.93;2.83;;;11.00;99.90;;;;;;5081371;28;20032;-75
2023/01/02 02:59:14;;;;;;;12.52;2.80;;;11.00;99.90;;;;;;5067811;28;20033;-76
2023/01/02 03:01:41;;;;;;;9.98;2.97;;;10.90;99.90;;;;;;5081685;28;20044;-76
2023/01/02 03:04:20;;;;;;;15.80;3.00;;;10.90;99.90;;;;;;5083840;28;20043;-76
2023/01/02 03:07:15;;;;;;;11.82;3.00;;;10.80;99.90;;;;;;5080472;28;20445;-76
2023/01/02 03:09:52;;;;;;;14.32;3.10;;;10.70;99.90;;;;;;5080009;28;20056;-75
2023/01/02 03:12:23;;;;;;;13.10;3.08;;;10.80;99.90;;;;;;5082252;28;20051;-76
2023/01/02 03:15:23;;;;;;;10.38;2.95;;;10.70;99.90;;;;;;5080243;28;20051;-76
2023/01/02 03:18:06;;;;;;;10.82;3.53;;;10.70;99.90;;;;;;5031095;28;20028;-76
2023/01/02 03:20:38;;;;;;;13.05;3.20;;;10.70;99.90;;;;;;5070451;28;20036;-75
2023/01/02 03:23:10;;;;;;;12.82;2.60;;;10.70;99.90;;;;;;5058587;28;20162;-77
2023/01/02 03:25:37;;;;;;;9.30;3.00;;;10.70;99.90;;;;;;5077132;28;20036;-76
2023/01/02 03:28:09;;;;;;;12.60;2.78;;;10.70;99.90;;;;;;5083331;28;20032;-76
2023/01/02 03:30:38;;;;;;;11.00;2.88;;;10.60;99.90;;;;;;5075254;28;20037;-75
2023/01/02 03:33:11;;;;;;;11.38;3.13;;;10.60;99.90;;;;;;5088110;27;20047;-75
2023/01/02 03:35:47;;;;;;;12.52;3.45;;;10.60;99.90;;;;;;5058779;28;20174;-76
2023/01/02 03:38:27;;;;;;;11.65;3.00;;;10.60;99.90;;;;;;5070337;28;20114;-76
2023/01/02 03:41:22;;;;;;;10.63;2.92;;;10.50;99.90;;;;;;5082332;28;20059;-76
2023/01/02 03:43:51;;;;;;;8.93;2.70;;;10.50;99.90;;;;;;5079390;28;20032;-76
2023/01/02 03:46:44;;;;;;;14.55;2.88;;;10.50;99.90;;;;;;5076813;28;20097;-76
2023/01/02 03:49:28;;;;;;;10.93;2.70;;;10.50;99.90;;;;;;5062878;28;20499;-76
2023/01/02 03:51:54;;;;;;;12.80;3.28;;;10.50;99.90;;;;;;5083271;28;20040;-76
2023/01/02 03:54:21;;;;;;;10.50;2.83;;;10.50;99.90;;;;;;5078020;28;20059;-75
2023/01/02 03:57:03;;;;;;;9.23;2.72;;;10.50;99.90;;;;;;5073159;28;20043;-76
2023/01/02 03:59:48;;;;;;;9.00;3.05;;;10.60;99.90;;;;;;5071229;28;20056;-76
2023/01/02 04:02:29;;;;;;;9.70;3.10;;;10.70;99.90;;;;;;5060466;28;20054;-76
2023/01/02 04:04:58;;;;;;;12.38;3.00;;;10.70;99.90;;;;;;5076528;28;20024;-76
2023/01/02 04:07:47;;;;;;;21.33;3.78;;;10.60;99.90;;;;;;5084437;28;20407;-75
2023/01/02 04:10:14;;;;;;;11.93;3.35;;;10.60;99.90;;;;;;5024930;28;20067;-75
2023/01/02 04:12:46;;;;;;;15.57;3.05;;;10.60;99.90;;;;;;5079518;28;20046;-77
2023/01/02 04:15:15;;;;;;;11.98;3.95;;;10.60;99.90;;;;;;5065731;28;20040;-76
2023/01/02 04:17:50;;;;;;;14.57;2.60;;;10.50;99.90;;;;;;5097314;28;20040;-76
2023/01/02 04:20:33;;;;;;;12.00;2.65;;;10.60;99.90;;;;;;5074969;28;20036;-76
2023/01/02 04:23:10;;;;;;;9.32;2.80;;;10.50;99.90;;;;;;5076787;28;20039;-75
2023/01/02 04:25:46;;;;;;;7.78;2.58;;;10.60;99.90;;;;;;5075793;28;20036;-76
2023/01/02 04:28:22;;;;;;;11.52;2.40;;;10.60;99.90;;;;;;5070872;28;20142;-76
2023/01/02 04:31:02;;;;;;;10.73;2.75;;;10.60;99.90;;;;;;5069828;28;20090;-75
2023/01/02 04:33:30;;;;;;;14.57;3.22;;;10.60;99.90;;;;;;5075958;28;20037;-76
2023/01/02 04:35:56;;;;;;;12.20;2.70;;;10.60;99.90;;;;;;5076704;28;20044;-77
2023/01/02 04:38:22;;;;;;;13.55;2.85;;;10.50;99.90;;;;;;5091789;28;20040;-76
2023/01/02 04:40:48;;;;;;;12.55;2.70;;;10.50;99.90;;;;;;5078399;28;20105;-76
2023/01/02 04:43:19;;;;;;;8.65;2.75;;;10.50;99.90;;;;;;5076656;28;20133;-75
2023/01/02 04:45:48;;;;;;;10.02;2.60;;;10.50;99.90;;;;;;5082924;28;20036;-75
2023/01/02 04:48:15;;;;;;;9.38;2.67;;;10.50;99.90;;;;;;5079963;28;20128;-76
2023/01/02 04:50:41;;;;;;;12.85;2.95;;;10.40;99.90;;;;;;5079784;28;20036;-76
2023/01/02 04:53:08;;;;;;;11.95;2.50;;;10.30;99.90;;;;;;5092551;28;20048;-76
2023/01/02 04:55:34;;;;;;;10.60;2.80;;;10.20;99.90;;;;;;5088941;28;20029;-76
2023/01/02 04:58:00;;;;;;;11.52;3.00;;;10.10;99.90;;;;;;5060428;28;20849;-76
2023/01/02 05:00:25;;;;;;;13.27;2.85;;;10.10;99.90;;;;;;5063968;28;20408;-76
2023/01/02 05:02:51;;;;;;;10.90;2.70;;;10.10;99.90;;;;;;5061132;28;20722;-75
2023/01/02 05:05:17;;;;;;;10.20;2.92;;;10.20;99.90;;;;;;5061028;28;20032;-76
2023/01/02 05:07:43;;;;;;;13.50;2.97;;;10.20;99.90;;;;;;5060788;28;20075;-76
2023/01/02 05:10:09;;;;;;;13.30;3.10;;;10.20;99.90;;;;;;5042579;28;20052;-76
2023/01/02 05:12:36;;;;;;;11.05;2.85;;;10.30;99.90;;;;;;5064788;28;20090;-75
2023/01/02 05:15:03;;;;;;;;;;;10.30;99.90;;;;;;5064181;28;20048;-76
2023/01/02 05:17:32;;;;;;;7.60;2.58;;;10.30;99.90;;;;;;5065039;28;19963;-77
2023/01/02 05:19:59;;;;;;;11.80;2.58;;;10.50;99.90;;;;;;5062629;28;20036;-76
2023/01/02 05:25:09;;;;;;;14.02;3.47;;;10.30;99.90;;;;;;5064452;27;19939;-76
2023/01/02 05:27:35;;;;;;;11.20;2.83;;;10.20;99.90;;;;;;5068892;28;20036;-76
2023/01/02 05:30:02;;;;;;;12.10;2.78;;;10.20;99.90;;;;;;5066534;28;20040;-76
2023/01/02 05:32:28;;;;;;;12.43;2.72;;;10.10;99.90;;;;;;5085827;28;20046;-75
2023/01/02 05:34:53;;;;;;;12.77;2.83;;;10.10;99.90;;;;;;5082098;28;20115;-76
2023/01/02 05:37:19;;;;;;;7.38;2.47;;;10.10;99.90;;;;;;5080627;28;20040;-76
2023/01/02 05:39:47;;;;;;;8.40;2.60;;;10.10;99.90;;;;;;5066854;28;20082;-76
2023/01/02 05:42:13;;;;;;;12.65;3.30;;;10.10;99.90;;;;;;5085339;28;20044;-76
2023/01/02 05:44:39;;;;;;;13.68;3.25;;;10.10;99.90;;;;;;5099500;28;20042;-76
2023/01/02 05:47:05;;;;;;;11.77;2.65;;;10.10;99.90;;;;;;5086906;28;20400;-77
2023/01/02 05:49:31;;;;;;;14.73;3.28;;;10.10;99.90;;;;;;5087396;28;20042;-76
2023/01/02 05:51:56;;;;;;;10.35;2.30;;;10.10;99.90;;;;;;5086238;28;20082;-76
2023/01/02 05:54:22;;;;;;;10.52;2.20;;;10.10;99.90;;;;;;5084756;28;20062;-76
2023/01/02 05:56:48;;;;;;;8.60;2.38;;;10.10;99.90;;;;;;5085641;28;20031;-75
2023/01/02 05:59:14;;;;;;;12.75;3.17;;;10.10;99.90;;;;;;5083085;28;20040;-76
2023/01/02 06:01:40;;;;;;;10.32;3.17;;;10.30;99.90;;;;;;5081696;28;20420;-78
2023/01/02 06:04:06;;;;;;;14.05;2.58;;;10.40;99.90;;;;;;5069508;28;20051;-76
2023/01/02 06:06:37;;;;;;;9.80;2.80;;;10.40;99.90;;;;;;5097291;27;20095;-76
2023/01/02 06:09:04;;;;;;;14.73;4.03;;;10.50;99.90;;;;;;5080085;28;20040;-76
2023/01/02 06:11:30;;;;;;;11.98;2.72;;;10.50;99.90;;;;;;5077757;28;20112;-76
2023/01/02 06:13:57;;;;;;;9.38;2.65;;;10.50;99.90;;;;;;5079499;28;20035;-76
2023/01/02 06:16:23;;;;;;;9.77;2.83;;;10.50;99.90;;;;;;5081346;27;20602;-76
2023/01/02 06:18:50;;;;;;;9.57;2.72;;;10.40;99.90;;;;;;5078621;28;20040;-76
2023/01/02 06:21:18;;;;;;;12.48;3.72;;;10.40;99.90;;;;;;5085383;28;20051;-76
2023/01/02 06:23:44;;;;;;;11.25;3.10;;;10.50;99.90;;;;;;5082617;28;20969;-77
2023/01/02 06:26:16;;;;;;;11.95;3.25;;;10.50;99.90;;;;;;5080005;28;20104;-75
2023/01/02 06:28:43;;;;;;;11.75;3.33;;;10.50;99.90;;;;;;5078227;28;20040;-76
2023/01/02 06:31:14;;;;;;;10.32;2.63;;;10.40;99.90;;;;;;5084226;28;20043;-77
2023/01/02 06:33:40;;;;;;;11.25;3.05;;;10.30;99.90;;;;;;5072320;28;20032;-76
2023/01/02 06:36:08;;;;;;;10.80;3.08;;;10.30;99.90;;;;;;5064745;28;20418;-76
2023/01/02 06:38:35;;;;;;;9.15;3.72;;;10.30;99.90;;;;;;5086686;28;20036;-76
2023/01/02 06:41:02;;;;;;;11.10;3.30;;;10.30;99.90;;;;;;5079692;28;20028;-77
2023/01/02 06:43:28;;;;;;;;;;;10.30;99.90;;;;;;5084783;28;20029;-76
2023/01/02 06:45:58;;;;;;;12.30;3.85;;;10.20;99.90;;;;;;5083695;28;20408;-75
2023/01/02 06:48:24;;;;;;;12.15;3.83;;;10.10;99.90;;;;;;5094006;27;20020;-76
2023/01/02 06:50:50;;;;;;;13.40;3.15;;;10.10;99.90;;;;;;5077840;28;20051;-76
2023/01/02 06:53:16;;;;;;;13.95;2.92;;;10.10;99.90;;;;;;5050776;28;20040;-76
2023/01/02 06:55:52;;;;;;;10.27;2.92;;;10.20;99.90;;;;;;5062155;28;20031;-76
2023/01/02 06:58:19;;;;;;;9.70;3.10;;;10.10;99.90;;;;;;5062325;28;20558;-76
2023/01/02 07:00:45;;;;;;;12.68;2.70;;;10.10;99.90;;;;;;5065013;28;20546;-76
2023/01/02 07:03:11;;;;;;;11.07;2.17;;;10.20;99.90;;;;;;5059544;28;20029;-76
2023/01/02 07:05:37;;;;;;;10.38;2.60;;;10.40;99.90;;;;;;5063432;28;20099;-76
2023/01/02 07:08:03;;;;;;;8.63;2.13;;;10.50;99.90;;;;;;5063080;28;20207;-76
2023/01/02 07:10:29;;;;;;;10.88;2.85;;;10.60;99.90;;;;;;5068233;28;20111;-75
2023/01/02 07:12:54;;;;;;;12.55;2.97;;;10.60;99.90;;;;;;5066507;28;20135;-76
2023/01/02 07:15:20;;;;;;;7.93;2.05;;;10.60;99.90;;;;;;5058145;28;20040;-77
2023/01/02 07:17:46;;;;;;;10.60;1.95;;;10.60;99.90;;;;;;5064228;28;20044;-77
2023/01/02 07:20:12;;;;;;;9.10;2.80;;;10.60;99.90;;;;;;5065369;28;20580;-76
2023/01/02 07:22:38;;;;;;;10.90;2.20;;;10.80;99.90;;;;;;5062628;28;20047;-76
2023/01/02 07:25:04;;;;;;;11.77;2.65;;;10.90;99.90;;;;;;5072350;28;20037;-76
2023/01/02 07:27:31;;;;;;;14.63;2.78;;;11.00;99.90;;;;;;5049043;28;20057;-76
2023/01/02 07:29:57;;;;;;;12.23;3.15;;;11.00;99.90;;;;;;5065445;28;20541;-75
2023/01/02 07:32:23;;;;;;;16.48;3.25;;;11.10;99.90;;;;;;5060163;28;20069;-75
2023/01/02 07:34:50;;;;;;;13.98;3.45;;;11.30;99.90;;;;;;5057661;28;20051;-76
2023/01/02 07:37:15;;;;;;;9.20;2.72;;;11.30;99.90;;;;;;5062897;28;20373;-76
2023/01/02 07:39:41;;;;;;;14.95;3.25;;;11.40;99.90;;;;;;5066387;28;20098;-76
2023/01/02 07:42:07;;;;;;;13.10;3.72;;;11.50;99.90;;;;;;5064010;28;20403;-77
2023/01/02 07:44:33;;;;;;;12.10;3.42;;;11.50;99.90;;;;;;5063855;28;20025;-77
2023/01/02 07:46:59;;;;;;;8.77;3.00;;;11.60;99.90;;;;;;5066271;28;20044;-76
2023/01/02 07:49:25;;;;;;;13.38;3.20;;;11.70;99.90;;;;;;5059013;28;20766;-77
2023/01/02 07:51:51;;;;;;;14.88;3.58;;;11.90;99.90;;;;;;5058854;28;20544;-76
2023/01/02 07:54:17;;;;;;;16.75;3.53;;;12.10;99.90;;;;;;5039852;28;20067;-80
2023/01/02 07:56:43;;;;;;;12.05;3.40;;;12.30;99.90;;;;;;5077617;28;20064;-76
2023/01/02 07:59:09;;;;;;;16.92;3.78;;;12.50;99.90;;;;;;5084238;28;20047;-77
2023/01/02 08:01:35;;;;;;;15.55;3.72;;;12.70;99.90;;;;;;5091415;28;20036;-76
2023/01/02 08:04:00;;;;;;;15.07;4.13;;;12.80;99.90;;;;;;5093136;27;20562;-77
2023/01/02 08:06:26;;;;;;;13.50;3.72;;;13.00;99.90;;;;;;5083634;28;20040;-77
2023/01/02 08:08:52;;;;;;;16.23;3.88;;;13.10;99.90;;;;;;5094825;28;20036;-76
2023/01/02 08:11:20;;;;;;;13.57;4.45;;;13.20;99.90;;;;;;5083175;28;20074;-76
2023/01/02 08:13:46;;;;;;;14.07;4.53;;;13.40;99.90;;;;;;5080092;28;20080;-76
2023/01/02 08:16:17;;;;;;;16.75;4.45;;;13.50;99.90;;;;;;5077396;28;20384;-76
2023/01/02 08:18:44;;;;;;;17.55;4.68;;;13.60;99.90;;;;;;5085384;28;20031;-77
2023/01/02 08:21:10;;;;;;;14.38;4.47;;;13.80;99.90;;;;;;5080315;28;20028;-77
2023/01/02 08:23:36;;;;;;;16.80;4.80;;;14.00;99.90;;;;;;5082472;28;20035;-77
2023/01/02 08:26:05;;;;;;;10.73;4.25;;;14.10;99.90;;;;;;5077438;28;20543;-77
2023/01/02 08:28:32;;;;;;;16.95;4.80;;;14.20;99.90;;;;;;5092687;28;20032;-77
2023/01/02 08:30:59;;;;;;;;;;;14.30;99.90;;;;;;5071391;28;20056;-76
2023/01/02 08:33:25;;;;;;;13.18;4.32;;;14.30;99.90;;;;;;5080052;28;19920;-75
2023/01/02 08:35:51;;;;;;;15.00;4.78;;;14.40;99.90;;;;;;5084334;28;20047;-77
2023/01/02 08:38:17;;;;;;;19.00;4.72;;;14.40;99.90;;;;;;5069320;28;20467;-77
2023/01/02 08:40:45;;;;;;;19.48;5.35;;;14.50;99.90;;;;;;5078266;28;20039;-76
2023/01/02 08:43:10;;;;;;;18.25;4.90;;;14.60;99.90;;;;;;5082048;28;20066;-76
2023/01/02 08:45:36;;;;;;;15.63;5.20;;;14.60;99.90;;;;;;5079822;28;20067;-78
2023/01/02 08:48:04;;;;;;;20.50;6.28;;;14.60;99.90;;;;;;5076155;28;20507;-77
2023/01/02 08:50:29;;;;;;;30.40;13.90;;;14.60;99.90;;;;;;5073384;28;20025;-76
2023/01/02 08:52:55;;;;;;;19.17;6.50;;;14.60;99.90;;;;;;5073839;28;20051;-76
2023/01/02 08:55:21;;;;;;;20.35;7.10;;;14.50;99.90;;;;;;5079289;28;20040;-77
2023/01/02 08:57:47;;;;;;;20.17;7.68;;;14.60;99.90;;;;;;5078872;28;20055;-77
2023/01/02 09:00:13;;;;;;;18.10;7.68;;;14.60;99.90;;;;;;5092975;28;20037;-78
2023/01/02 09:02:40;;;;;;;18.30;8.10;;;14.70;99.90;;;;;;5077693;28;20042;-76
2023/01/02 09:05:06;;;;;;;18.95;7.38;;;14.70;99.90;;;;;;5071739;28;20083;-76
2023/01/02 09:07:32;;;;;;;20.98;8.15;;;14.60;99.90;;;;;;5082410;28;20040;-78
2023/01/02 09:10:00;;;;;;;17.65;7.68;;;14.60;99.90;;;;;;5066333;28;20549;-77
2023/01/02 09:12:26;;;;;;;20.52;8.57;;;14.70;99.90;;;;;;5071841;28;20044;-75
2023/01/02 09:14:51;;;;;;;21.60;8.88;;;15.00;99.90;;;;;;5060350;28;20101;-77
2023/01/02 09:17:17;;;;;;;20.27;8.30;;;15.20;99.90;;;;;;5056691;28;20040;-77
2023/01/02 09:19:44;;;;;;;26.33;8.98;;;15.20;99.90;;;;;;5064576;28;20522;-77
2023/01/02 09:22:10;;;;;;;;;;;15.10;99.90;;;;;;5060641;28;20053;-77
2023/01/02 09:24:36;;;;;;;22.98;8.30;;;14.90;99.90;;;;;;5062509;28;20363;-76
2023/01/02 09:27:02;;;;;;;18.33;8.48;;;14.80;99.90;;;;;;5053832;28;20093;-76
2023/01/02 09:29:28;;;;;;;18.63;7.80;;;14.80;99.90;;;;;;5062536;28;20055;-76
2023/01/02 09:31:54;;;;;;;20.48;8.45;;;14.80;99.90;;;;;;5062442;28;20448;-77
2023/01/02 09:34:20;;;;;;;18.55;7.22;;;14.70;99.90;;;;;;5071957;28;20124;-77
2023/01/02 09:36:46;;;;;;;21.63;6.43;;;14.60;99.90;;;;;;5060378;28;20044;-77
2023/01/02 09:39:12;;;;;;;16.17;6.22;;;14.70;99.90;;;;;;5093073;28;20491;-79
2023/01/02 09:41:54;;;;;;;15.23;5.43;;;14.80;99.90;;;;;;5072482;28;20149;-77
2023/01/02 09:44:32;;;;;;;15.77;6.53;;;14.80;99.90;;;;;;5080397;28;20036;-76
2023/01/02 09:47:11;;;;;;;20.95;6.53;;;14.90;99.90;;;;;;5064080;28;20037;-77
2023/01/02 09:49:46;;;;;;;18.67;7.18;;;14.90;99.90;;;;;;5088787;28;20174;-77
2023/01/02 09:52:39;;;;;;;19.45;7.70;;;15.00;99.90;;;;;;5090393;28;20041;-77
2023/01/02 09:55:17;;;;;;;17.35;8.43;;;15.00;99.90;;;;;;5056356;28;20476;-77
2023/01/02 09:57:49;;;;;;;19.60;7.88;;;15.00;99.90;;;;;;5054803;28;20055;-76
2023/01/02 10:00:26;;;;;;;18.88;7.88;;;15.10;99.90;;;;;;5057041;28;20036;-77
2023/01/02 10:03:26;;;;;;;21.92;9.70;;;15.10;99.90;;;;;;5061480;28;20094;-78
2023/01/02 10:06:14;;;;;;;17.85;8.98;;;15.00;99.90;;;;;;5078123;28;20079;-77
2023/01/02 10:09:00;;;;;;;21.92;9.00;;;15.20;99.90;;;;;;5077239;28;20494;-77
2023/01/02 10:11:35;;;;;;;23.23;9.25;;;15.40;99.90;;;;;;5097347;28;20044;-77
2023/01/02 10:14:04;;;;;;;31.88;15.40;;;15.60;99.90;;;;;;5069941;28;20049;-76
2023/01/02 10:16:39;;;;;;;27.17;12.90;;;15.60;99.90;;;;;;5076941;28;20047;-77
2023/01/02 10:19:34;;;;;;;24.27;9.65;;;15.50;99.90;;;;;;5069626;28;20033;-78
2023/01/02 10:22:01;;;;;;;28.35;10.57;;;15.60;99.90;;;;;;5071464;28;20109;-77
2023/01/02 10:24:33;;;;;;;23.40;9.80;;;15.70;99.90;;;;;;5062949;28;20024;-77
2023/01/02 10:27:00;;;;;;;23.42;8.77;;;15.80;99.90;;;;;;5075224;28;20063;-79
2023/01/02 10:29:29;;;;;;;27.40;10.52;;;16.00;99.90;;;;;;5087775;28;20072;-77
2023/01/02 10:32:00;;;;;;;25.00;10.43;;;16.10;99.90;;;;;;5097668;27;20032;-76
2023/01/02 10:34:41;;;;;;;29.20;10.55;;;16.20;99.90;;;;;;5078232;28;20113;-77
2023/01/02 10:37:14;;;;;;;25.05;10.93;;;16.20;99.90;;;;;;5081564;28;20043;-76
2023/01/02 10:39:43;;;;;;;24.30;10.35;;;16.00;99.90;;;;;;5085325;28;20442;-77
2023/01/02 10:42:11;;;;;;;25.00;9.95;;;16.00;99.90;;;;;;5087797;28;20036;-76
2023/01/02 10:44:39;;;;;;;22.85;9.65;;;16.10;99.90;;;;;;5081671;28;20124;-78
2023/01/02 10:47:30;;;;;;;25.45;9.98;;;16.20;99.90;;;;;;5082883;28;20633;-77
2023/01/02 10:49:58;;;;;;;25.50;13.38;;;16.30;99.90;;;;;;5082916;28;20033;-77
2023/01/02 10:52:26;;;;;;;24.80;10.93;;;16.50;99.90;;;;;;5080143;28;20108;-77
2023/01/02 10:54:54;;;;;;;23.15;9.98;;;16.70;99.90;;;;;;5085304;28;20203;-77
2023/01/02 10:57:41;;;;;;;25.63;10.43;;;16.90;99.90;;;;;;5082525;28;20036;-77
2023/01/02 11:00:26;;;;;;;21.70;9.98;;;17.10;99.90;;;;;;5098151;28;20132;-77
2023/01/02 11:03:20;;;;;;;22.13;9.85;;;17.20;99.90;;;;;;5066274;28;20040;-78
2023/01/02 11:05:54;;;;;;;19.52;9.68;;;17.20;99.90;;;;;;5112185;27;20060;-77
2023/01/02 11:08:23;;;;;;;21.33;9.10;;;17.20;99.90;;;;;;5081128;28;20036;-76
2023/01/02 11:10:50;;;;;;;23.42;9.60;;;17.20;99.90;;;;;;5081758;28;20566;-77
2023/01/02 11:13:20;;;;;;;21.58;10.38;;;17.00;99.90;;;;;;5078808;28;20063;-76
2023/01/02 11:15:58;;;;;;;19.73;9.20;;;17.10;99.90;;;;;;5082897;28;20501;-77
2023/01/02 11:18:33;;;;;;;21.02;9.95;;;17.20;99.90;;;;;;5082900;28;20036;-76
2023/01/02 11:21:05;;;;;;;21.30;9.75;;;17.50;99.90;;;;;;5087978;28;20449;-77
2023/01/02 11:23:38;;;;;;;21.98;9.02;;;17.70;99.90;;;;;;5108178;27;20039;-76
2023/01/02 11:26:11;;;;;;;19.00;8.75;;;17.90;99.90;;;;;;5057996;28;20065;-76
2023/01/02 11:28:40;;;;;;;21.38;9.38;;;18.20;99.90;;;;;;5091004;28;20124;-77
2023/01/02 11:31:09;;;;;;;23.13;9.32;;;18.00;99.90;;;;;;5071276;28;20044;-79
2023/01/02 11:33:37;;;;;;;22.17;9.27;;;18.20;99.90;;;;;;5081918;28;20029;-77
2023/01/02 11:36:03;;;;;;;18.85;9.85;;;18.30;99.90;;;;;;5069852;28;20045;-77
2023/01/02 11:38:47;;;;;;;22.85;10.55;;;18.10;99.90;;;;;;5091707;28;20036;-76
2023/01/02 11:44:28;;;;;;;22.10;9.73;;;18.00;99.90;;;;;;5072106;28;20094;-77
2023/01/02 11:46:55;;;;;;;19.33;9.30;;;17.90;99.90;;;;;;5092388;28;20456;-76
2023/01/02 11:49:27;;;;;;;20.08;9.40;;;18.10;99.90;;;;;;5073113;28;20067;-76
2023/01/02 11:52:00;;;;;;;21.35;9.27;;;18.00;99.90;;;;;;5098413;27;20055;-77
2023/01/02 11:54:48;;;;;;;21.58;9.30;;;17.90;99.90;;;;;;5071931;28;20032;-77
2023/01/02 11:57:57;;;;;;;23.92;8.98;;;18.10;99.90;;;;;;5065369;28;20025;-77
2023/01/02 12:00:28;;;;;;;22.13;9.95;;;18.00;99.90;;;;;;5068327;28;20040;-77
2023/01/02 12:03:04;;;;;;;18.35;9.40;;;18.00;99.90;;;;;;5068165;28;20043;-78
2023/01/02 12:06:17;;;;;;;23.38;10.55;;;17.90;99.90;;;;;;5066189;28;20040;-78
2023/01/02 12:08:45;;;;;;;20.60;9.55;;;17.90;99.90;;;;;;5087668;28;20392;-76
2023/01/02 12:11:29;;;;;;;19.63;10.52;;;17.70;99.90;;;;;;5092080;28;20033;-77
2023/01/02 12:14:18;;;;;;;21.88;11.20;;;17.60;99.90;;;;;;5070726;28;20129;-77
2023/01/02 12:17:10;;;;;;;25.67;9.35;;;17.60;99.90;;;;;;5090995;28;20526;-77
2023/01/02 12:19:57;;;;;;;18.02;8.73;;;17.60;99.90;;;;;;5073703;28;20479;-78
2023/01/02 12:22:55;;;;;;;20.23;8.63;;;17.70;99.90;;;;;;5093665;27;20036;-77
2023/01/02 12:25:33;;;;;;;26.25;10.27;;;17.70;99.90;;;;;;5079029;28;20217;-77
2023/01/02 12:28:23;;;;;;;21.88;10.13;;;17.70;99.90;;;;;;5096674;28;20123;-76
2023/01/02 12:31:12;;;;;;;23.48;10.32;;;17.90;99.90;;;;;;5055927;28;20037;-77
2023/01/02 12:34:12;;;;;;;19.73;9.57;;;17.90;99.90;;;;;;5070254;28;20372;-76
2023/01/02 12:36:56;;;;;;;22.50;9.52;;;18.00;99.90;;;;;;5071200;28;20079;-77
2023/01/02 12:39:40;;;;;;;24.02;9.82;;;18.10;99.90;;;;;;5076051;28;20037;-76
2023/01/02 12:42:41;;;;;;;26.90;11.40;;;18.40;99.90;;;;;;5050843;28;20424;-77
2023/01/02 12:45:28;;;;;;;26.88;11.43;;;18.10;99.90;;;;;;5032433;28;20036;-77
2023/01/02 12:48:11;;;;;;;21.58;10.18;;;18.00;99.90;;;;;;5063549;28;20029;-77
2023/01/02 12:51:03;;;;;;;23.67;9.35;;;17.80;99.90;;;;;;5079746;28;20033;-76
2023/01/02 12:53:56;;;;;;;24.65;10.50;;;17.90;99.90;;;;;;5080251;28;20028;-76
2023/01/02 12:56:46;;;;;;;20.63;9.63;;;17.90;99.90;;;;;;5067752;28;20043;-77
2023/01/02 13:00:09;;;;;;;24.88;10.65;;;17.80;99.90;;;;;;5076098;28;20350;-77
2023/01/02 13:02:59;;;;;;;24.58;10.15;;;17.70;99.90;;;;;;5025153;28;20035;-77
2023/01/02 13:05:30;;;;;;;23.92;9.90;;;17.80;99.90;;;;;;5012999;28;20389;-77
2023/01/02 13:08:04;;;;;;;24.23;10.38;;;18.10;99.90;;;;;;5081382;28;20040;-77